PWSweather.com
Personal Weather Stations
Station Observations
ZYBORSKI
Fromes HillGB hr8 1

Fromes HillGB hr8 1

Lat: 52.1172558, Lon: -2.4749163

Elevation: 0

Station Type: FineOffset

High Low Average
Temperature 50.5°F10.3°F 32.0°F0.0°F 41.0°F5.0°F
Dew Point 44.9°F7.2°F 31.8°F-0.1°F 38.2°F3.4°F
Winds 14.5 mph WNW23.3 mph WNW Calm Calm 1.4 mph 2.3 mph
Wind Gusts 41.2 mph66.3 mph -- 8.3 mph13.4 mph
Humidity 99% 64% 91%
Pressure 30.21 in1023.00 in 29.99 in1015.60 in -
Precipitation 0.26 in6.60 in - -
Hour Temp Dew Point Humidity Winds Wind Gusts Pressure Precip Precip Rate Daily Precip Total
12:00 AM 33.6°F0.9°C 33.4°F0.8°C 99% Calm Calm -- 30.21 in1023.0 mb 0.00 in0.0 mm 0.00 in0.0 mm 0.00 in0.0 mm
12:15 AM 33.6°F0.9°C 33.4°F0.8°C 99% Calm Calm -- 30.20 in1022.7 mb 0.00 in0.0 mm 0.00 in0.0 mm 0.00 in0.0 mm
12:30 AM 33.8°F1.0°C 33.6°F0.9°C 99% Calm Calm -- 30.20 in1022.7 mb 0.00 in0.0 mm 0.00 in0.0 mm 0.00 in0.0 mm
12:45 AM 33.6°F0.9°C 33.4°F0.8°C 99% Calm Calm -- 30.20 in1022.7 mb 0.00 in0.0 mm 0.00 in0.0 mm 0.00 in0.0 mm
01:00 AM 33.4°F0.8°C 33.2°F0.7°C 99% Calm Calm -- 30.20 in1022.7 mb 0.00 in0.0 mm 0.00 in0.0 mm 0.00 in0.0 mm
01:15 AM 33.3°F0.7°C 33.0°F0.6°C 99% Calm Calm -- 30.20 in1022.7 mb 0.00 in0.0 mm 0.00 in0.0 mm 0.00 in0.0 mm
01:30 AM 32.4°F0.2°C 32.1°F0.1°C 99% Calm Calm -- 30.20 in1022.7 mb 0.00 in0.0 mm 0.00 in0.0 mm 0.00 in0.0 mm
01:45 AM 32.7°F0.4°C 32.5°F0.3°C 99% Calm Calm -- 30.19 in1022.4 mb 0.00 in0.0 mm 0.00 in0.0 mm 0.00 in0.0 mm
02:00 AM 33.4°F0.8°C 33.2°F0.7°C 99% Calm Calm -- 30.19 in1022.4 mb 0.00 in0.0 mm 0.00 in0.0 mm 0.00 in0.0 mm
02:15 AM 33.3°F0.7°C 33.0°F0.6°C 99% Calm Calm -- 30.19 in1022.4 mb 0.00 in0.0 mm 0.00 in0.0 mm 0.00 in0.0 mm
02:30 AM 33.4°F0.8°C 33.2°F0.7°C 99% Calm Calm -- 30.18 in1022.0 mb 0.00 in0.0 mm 0.00 in0.0 mm 0.00 in0.0 mm
02:45 AM 33.4°F0.8°C 33.2°F0.7°C 99% Calm Calm -- 30.18 in1022.0 mb 0.00 in0.0 mm 0.00 in0.0 mm 0.00 in0.0 mm
03:00 AM 32.7°F0.4°C 32.5°F0.3°C 99% Calm Calm -- 30.18 in1022.0 mb 0.00 in0.0 mm 0.00 in0.0 mm 0.00 in0.0 mm
03:15 AM 32.0°F0.0°C 31.8°F-0.1°C 99% Calm Calm -- 30.17 in1021.7 mb 0.00 in0.0 mm 0.00 in0.0 mm 0.00 in0.0 mm
03:30 AM 32.4°F0.2°C 32.1°F0.1°C 99% Calm Calm -- 30.18 in1022.0 mb 0.00 in0.0 mm 0.00 in0.0 mm 0.00 in0.0 mm
03:45 AM 32.5°F0.3°C 32.3°F0.2°C 99% Calm Calm 0.7 mph1.1 kmh 30.18 in1022.0 mb 0.00 in0.0 mm 0.00 in0.0 mm 0.00 in0.0 mm
04:00 AM 32.5°F0.3°C 32.3°F0.2°C 99% Calm Calm -- 30.18 in1022.0 mb 0.00 in0.0 mm 0.00 in0.0 mm 0.00 in0.0 mm
04:15 AM 32.4°F0.2°C 32.1°F0.1°C 99% Calm Calm -- 30.18 in1022.0 mb 0.00 in0.0 mm 0.00 in0.0 mm 0.00 in0.0 mm
04:30 AM 32.4°F0.2°C 32.1°F0.1°C 99% Calm Calm -- 30.18 in1022.0 mb 0.00 in0.0 mm 0.00 in0.0 mm 0.00 in0.0 mm
04:45 AM 33.4°F0.8°C 33.2°F0.7°C 99% Calm Calm -- 30.18 in1022.0 mb 0.00 in0.0 mm 0.00 in0.0 mm 0.00 in0.0 mm
05:00 AM 33.6°F0.9°C 33.4°F0.8°C 99% Calm Calm -- 30.17 in1021.7 mb 0.00 in0.0 mm 0.00 in0.0 mm 0.00 in0.0 mm
05:15 AM 33.6°F0.9°C 33.4°F0.8°C 99% Calm Calm -- 30.18 in1022.0 mb 0.00 in0.0 mm 0.00 in0.0 mm 0.00 in0.0 mm
05:30 AM 34.0°F1.1°C 33.7°F0.9°C 99% Calm Calm -- 30.18 in1022.0 mb 0.00 in0.0 mm 0.00 in0.0 mm 0.00 in0.0 mm
05:45 AM 34.0°F1.1°C 33.7°F0.9°C 99% Calm Calm -- 30.18 in1022.0 mb 0.00 in0.0 mm 0.00 in0.0 mm 0.00 in0.0 mm
06:00 AM 34.2°F1.2°C 33.9°F1.1°C 99% Calm Calm -- 30.18 in1022.0 mb 0.00 in0.0 mm 0.00 in0.0 mm 0.00 in0.0 mm
06:15 AM 34.7°F1.5°C 34.5°F1.4°C 99% Calm Calm -- 30.18 in1022.0 mb 0.00 in0.0 mm 0.00 in0.0 mm 0.00 in0.0 mm
06:30 AM 35.2°F1.8°C 35.0°F1.7°C 99% Calm Calm -- 30.18 in1022.0 mb 0.00 in0.0 mm 0.00 in0.0 mm 0.00 in0.0 mm
06:45 AM 35.8°F2.1°C 35.5°F1.9°C 99% Calm Calm -- 30.17 in1021.7 mb 0.00 in0.0 mm 0.00 in0.0 mm 0.00 in0.0 mm
07:00 AM 36.3°F2.4°C 36.1°F2.3°C 99% Calm Calm -- 30.17 in1021.7 mb 0.00 in0.0 mm 0.00 in0.0 mm 0.00 in0.0 mm
07:15 AM 36.9°F2.7°C 36.6°F2.6°C 99% Calm Calm -- 30.17 in1021.7 mb 0.00 in0.0 mm 0.00 in0.0 mm 0.00 in0.0 mm
07:30 AM 38.3°F3.5°C 38.0°F3.3°C 99% Calm Calm -- 30.18 in1022.0 mb 0.00 in0.0 mm 0.00 in0.0 mm 0.00 in0.0 mm
07:45 AM 41.0°F5.0°C 40.5°F4.7°C 98% Calm Calm 0.7 mph1.1 kmh 30.17 in1021.7 mb 0.00 in0.0 mm 0.00 in0.0 mm 0.00 in0.0 mm
08:00 AM 41.7°F5.4°C 40.9°F4.9°C 97% Calm Calm -- 30.17 in1021.7 mb 0.00 in0.0 mm 0.00 in0.0 mm 0.00 in0.0 mm
08:15 AM 43.2°F6.2°C 42.1°F5.6°C 96% Calm Calm -- 30.16 in1021.3 mb 0.00 in0.0 mm 0.00 in0.0 mm 0.00 in0.0 mm
08:30 AM 44.1°F6.7°C 41.6°F5.3°C 91% Calm Calm 2.2 mph3.5 kmh 30.15 in1021.0 mb 0.00 in0.0 mm 0.00 in0.0 mm 0.00 in0.0 mm
08:45 AM 44.2°F6.8°C 40.0°F4.4°C 85% Calm Calm 5.4 mph8.7 kmh 30.15 in1021.0 mb 0.00 in0.0 mm 0.00 in0.0 mm 0.00 in0.0 mm
09:00 AM 45.0°F7.2°C 41.0°F5.0°C 86% Calm Calm 3.8 mph6.1 kmh 30.15 in1021.0 mb 0.00 in0.0 mm 0.00 in0.0 mm 0.00 in0.0 mm
09:15 AM 45.9°F7.7°C 41.3°F5.2°C 84% 0.7 mph WSW1.1 kmh WSW 6.9 mph11.1 kmh 30.14 in1020.7 mb 0.00 in0.0 mm 0.00 in0.0 mm 0.00 in0.0 mm
09:30 AM 47.8°F8.8°C 42.9°F6.1°C 83% Calm Calm 0.7 mph1.1 kmh 30.14 in1020.7 mb 0.00 in0.0 mm 0.00 in0.0 mm 0.00 in0.0 mm
09:45 AM 46.6°F8.1°C 40.1°F4.5°C 78% 0.7 mph WSW1.1 kmh WSW 9.2 mph14.8 kmh 30.13 in1020.3 mb 0.01 in0.3 mm 0.04 in1.0 mm 0.01 in0.3 mm
10:00 AM 45.1°F7.3°C 40.0°F4.4°C 82% Calm Calm 3.1 mph5.0 kmh 30.14 in1020.7 mb 0.01 in0.3 mm 0.00 in0.0 mm 0.01 in0.3 mm
10:15 AM 46.8°F8.2°C 37.5°F3.1°C 70% 0.7 mph SW1.1 kmh SW 12.1 mph19.5 kmh 30.14 in1020.7 mb 0.01 in0.3 mm 0.00 in0.0 mm 0.01 in0.3 mm
10:30 AM 46.9°F8.3°C 38.7°F3.7°C 73% Calm Calm 8.3 mph13.4 kmh 30.13 in1020.3 mb 0.01 in0.3 mm 0.00 in0.0 mm 0.01 in0.3 mm
10:45 AM 46.6°F8.1°C 36.2°F2.3°C 67% Calm Calm 8.3 mph13.4 kmh 30.12 in1020.0 mb 0.00 in0.0 mm 0.00 in0.0 mm 0.01 in0.3 mm
11:00 AM 47.1°F8.4°C 35.6°F2.0°C 64% 2.2 mph WSW3.5 kmh WSW 13.0 mph20.9 kmh 30.12 in1020.0 mb 0.00 in0.0 mm 0.00 in0.0 mm 0.01 in0.3 mm
11:15 AM 47.3°F8.5°C 35.8°F2.1°C 64% 1.6 mph WSW2.6 kmh WSW 11.4 mph18.3 kmh 30.11 in1019.6 mb 0.00 in0.0 mm 0.00 in0.0 mm 0.01 in0.3 mm
11:30 AM 47.5°F8.6°C 39.6°F4.2°C 74% Calm Calm 7.6 mph12.2 kmh 30.11 in1019.6 mb 0.00 in0.0 mm 0.00 in0.0 mm 0.01 in0.3 mm
11:45 AM 46.6°F8.1°C 40.1°F4.5°C 78% Calm Calm 7.6 mph12.2 kmh 30.11 in1019.6 mb 0.00 in0.0 mm 0.00 in0.0 mm 0.01 in0.3 mm
12:00 PM 46.8°F8.2°C 39.9°F4.4°C 77% Calm Calm 6.9 mph11.1 kmh 30.10 in1019.3 mb 0.00 in0.0 mm 0.00 in0.0 mm 0.01 in0.3 mm
12:15 PM 46.6°F8.1°C 38.0°F3.3°C 72% 0.7 mph SW1.1 kmh SW 6.9 mph11.1 kmh 30.09 in1019.0 mb 0.00 in0.0 mm 0.00 in0.0 mm 0.01 in0.3 mm
12:30 PM 47.8°F8.8°C 38.9°F3.8°C 71% Calm Calm 10.7 mph17.2 kmh 30.09 in1019.0 mb 0.00 in0.0 mm 0.00 in0.0 mm 0.01 in0.3 mm
12:45 PM 47.5°F8.6°C 38.2°F3.4°C 70% Calm Calm 9.2 mph14.8 kmh 30.09 in1019.0 mb 0.00 in0.0 mm 0.00 in0.0 mm 0.01 in0.3 mm
01:00 PM 47.8°F8.8°C 37.8°F3.2°C 68% Calm Calm 14.5 mph23.3 kmh 30.09 in1019.0 mb 0.00 in0.0 mm 0.00 in0.0 mm 0.01 in0.3 mm
01:15 PM 47.8°F8.8°C 39.3°F4.1°C 72% 3.8 mph W6.1 kmh W 8.3 mph13.4 kmh 30.08 in1018.6 mb 0.00 in0.0 mm 0.00 in0.0 mm 0.01 in0.3 mm
01:30 PM 47.3°F8.5°C 40.1°F4.5°C 76% 2.2 mph WSW3.5 kmh WSW 16.8 mph27.0 kmh 30.08 in1018.6 mb 0.00 in0.0 mm 0.00 in0.0 mm 0.01 in0.3 mm
01:45 PM 47.1°F8.4°C 40.6°F4.8°C 78% 2.2 mph W3.5 kmh W 15.9 mph25.6 kmh 30.07 in1018.3 mb 0.00 in0.0 mm 0.00 in0.0 mm 0.01 in0.3 mm
02:00 PM 47.5°F8.6°C 41.0°F5.0°C 78% 3.8 mph WSW6.1 kmh WSW 22.8 mph36.7 kmh 30.06 in1017.9 mb 0.00 in0.0 mm 0.00 in0.0 mm 0.01 in0.3 mm
02:15 PM 48.0°F8.9°C 41.5°F5.3°C 78% 3.1 mph WNW5.0 kmh WNW 21.3 mph34.3 kmh 30.06 in1017.9 mb 0.00 in0.0 mm 0.00 in0.0 mm 0.01 in0.3 mm
02:30 PM 48.2°F9.0°C 42.6°F5.9°C 81% 2.2 mph W3.5 kmh W 19.7 mph31.7 kmh 30.05 in1017.6 mb 0.00 in0.0 mm 0.00 in0.0 mm 0.01 in0.3 mm
02:45 PM 48.7°F9.3°C 42.9°F6.1°C 80% 3.1 mph W5.0 kmh W 18.3 mph29.5 kmh 30.04 in1017.3 mb 0.00 in0.0 mm 0.00 in0.0 mm 0.01 in0.3 mm
03:00 PM 49.3°F9.6°C 44.3°F6.8°C 83% 3.1 mph W5.0 kmh W 22.8 mph36.7 kmh 30.04 in1017.3 mb 0.00 in0.0 mm 0.00 in0.0 mm 0.01 in0.3 mm
03:15 PM 48.6°F9.2°C 43.6°F6.4°C 83% 7.6 mph WSW12.2 kmh WSW 22.1 mph35.6 kmh 30.04 in1017.3 mb 0.00 in0.0 mm 0.00 in0.0 mm 0.01 in0.3 mm
03:30 PM 50.2°F10.1°C 44.6°F7.0°C 81% 6.9 mph WSW11.1 kmh WSW 25.9 mph41.7 kmh 30.02 in1016.6 mb 0.00 in0.0 mm 0.00 in0.0 mm 0.01 in0.3 mm
03:45 PM 50.4°F10.2°C 44.4°F6.9°C 80% 6.9 mph WSW11.1 kmh WSW 23.5 mph37.8 kmh 30.02 in1016.6 mb 0.00 in0.0 mm 0.00 in0.0 mm 0.01 in0.3 mm
04:00 PM 50.4°F10.2°C 43.4°F6.3°C 77% 9.2 mph W14.8 kmh W 20.6 mph33.2 kmh 30.01 in1016.3 mb 0.00 in0.0 mm 0.00 in0.0 mm 0.01 in0.3 mm
04:15 PM 50.5°F10.3°C 44.9°F7.2°C 81% 6.0 mph WSW9.7 kmh WSW 14.5 mph23.3 kmh 30.00 in1015.9 mb 0.00 in0.0 mm 0.00 in0.0 mm 0.01 in0.3 mm
04:30 PM 50.0°F10.0°C 44.7°F7.1°C 82% 1.6 mph W2.6 kmh W 20.6 mph33.2 kmh 30.00 in1015.9 mb 0.00 in0.0 mm 0.00 in0.0 mm 0.01 in0.3 mm
04:45 PM 49.8°F9.9°C 44.9°F7.2°C 83% 1.6 mph WSW2.6 kmh WSW 17.4 mph28.0 kmh 29.99 in1015.6 mb 0.00 in0.0 mm 0.00 in0.0 mm 0.01 in0.3 mm
05:00 PM 49.1°F9.5°C 43.5°F6.4°C 81% 6.0 mph WNW9.7 kmh WNW 22.1 mph35.6 kmh 29.99 in1015.6 mb 0.00 in0.0 mm 0.00 in0.0 mm 0.01 in0.3 mm
05:15 PM 48.6°F9.2°C 44.3°F6.8°C 85% 1.6 mph W2.6 kmh W 15.9 mph25.6 kmh 30.00 in1015.9 mb 0.00 in0.0 mm 0.00 in0.0 mm 0.01 in0.3 mm
05:30 PM 41.4°F5.2°C 41.1°F5.1°C 99% 14.5 mph WNW23.3 kmh WNW 41.2 mph66.3 kmh 30.03 in1016.9 mb 0.01 in0.3 mm 0.04 in1.0 mm 0.02 in0.5 mm
05:45 PM 39.4°F4.1°C 39.1°F3.9°C 99% Calm Calm 9.2 mph14.8 kmh 30.02 in1016.6 mb 0.05 in1.3 mm 0.16 in4.1 mm 0.06 in1.5 mm
06:00 PM 39.9°F4.4°C 39.7°F4.3°C 99% Calm Calm 5.4 mph8.7 kmh 30.02 in1016.6 mb 0.05 in1.3 mm 0.00 in0.0 mm 0.06 in1.5 mm
06:15 PM 40.3°F4.6°C 40.0°F4.4°C 99% Calm Calm 1.6 mph2.6 kmh 30.00 in1015.9 mb 0.05 in1.3 mm 0.00 in0.0 mm 0.06 in1.5 mm
06:30 PM 40.5°F4.7°C 40.2°F4.6°C 99% Calm Calm 6.0 mph9.7 kmh 30.00 in1015.9 mb 0.02 in0.5 mm 0.00 in0.0 mm 0.06 in1.5 mm
06:45 PM 40.8°F4.9°C 40.6°F4.8°C 99% Calm Calm 4.5 mph7.2 kmh 30.00 in1015.9 mb 0.00 in0.0 mm 0.00 in0.0 mm 0.06 in1.5 mm
07:00 PM 41.5°F5.3°C 41.3°F5.2°C 99% Calm Calm 3.8 mph6.1 kmh 30.00 in1015.9 mb 0.00 in0.0 mm 0.00 in0.0 mm 0.06 in1.5 mm
07:15 PM 41.9°F5.5°C 41.6°F5.3°C 99% Calm Calm 3.1 mph5.0 kmh 30.00 in1015.9 mb 0.00 in0.0 mm 0.00 in0.0 mm 0.06 in1.5 mm
07:30 PM 42.3°F5.7°C 42.0°F5.6°C 99% Calm Calm 3.1 mph5.0 kmh 29.99 in1015.6 mb 0.00 in0.0 mm 0.00 in0.0 mm 0.06 in1.5 mm
07:45 PM 42.3°F5.7°C 42.0°F5.6°C 99% Calm Calm 4.5 mph7.2 kmh 29.99 in1015.6 mb 0.01 in0.3 mm 0.04 in1.0 mm 0.07 in1.8 mm
08:00 PM 42.4°F5.8°C 42.2°F5.7°C 99% Calm Calm 7.6 mph12.2 kmh 29.99 in1015.6 mb 0.01 in0.3 mm 0.00 in0.0 mm 0.07 in1.8 mm
08:15 PM 41.0°F5.0°C 40.7°F4.8°C 99% 10.7 mph WNW17.2 kmh WNW 36.5 mph58.7 kmh 30.00 in1015.9 mb 0.01 in0.3 mm 0.00 in0.0 mm 0.07 in1.8 mm
08:30 PM 39.9°F4.4°C 39.7°F4.3°C 99% Calm Calm 19.0 mph30.6 kmh 30.01 in1016.3 mb 0.01 in0.3 mm 0.00 in0.0 mm 0.07 in1.8 mm
08:45 PM 39.7°F4.3°C 39.5°F4.2°C 99% 2.2 mph W3.5 kmh W 13.0 mph20.9 kmh 30.00 in1015.9 mb 0.00 in0.0 mm 0.00 in0.0 mm 0.07 in1.8 mm
09:00 PM 39.6°F4.2°C 39.3°F4.1°C 99% 1.6 mph W2.6 kmh W 13.0 mph20.9 kmh 29.99 in1015.6 mb 0.00 in0.0 mm 0.00 in0.0 mm 0.07 in1.8 mm
09:15 PM 39.2°F4.0°C 38.9°F3.8°C 99% Calm Calm 13.0 mph20.9 kmh 29.99 in1015.6 mb 0.00 in0.0 mm 0.00 in0.0 mm 0.07 in1.8 mm
09:30 PM 39.2°F4.0°C 38.9°F3.8°C 99% 1.6 mph W2.6 kmh W 10.7 mph17.2 kmh 30.00 in1015.9 mb 0.00 in0.0 mm 0.00 in0.0 mm 0.07 in1.8 mm
09:45 PM 39.0°F3.9°C 38.8°F3.8°C 99% 1.6 mph W2.6 kmh W 12.1 mph19.5 kmh 29.99 in1015.6 mb 0.00 in0.0 mm 0.00 in0.0 mm 0.07 in1.8 mm
10:00 PM 39.0°F3.9°C 38.8°F3.8°C 99% Calm Calm 7.6 mph12.2 kmh 29.99 in1015.6 mb 0.00 in0.0 mm 0.00 in0.0 mm 0.07 in1.8 mm
10:15 PM 39.4°F4.1°C 39.1°F3.9°C 99% 3.8 mph WNW6.1 kmh WNW 13.6 mph21.9 kmh 30.00 in1015.9 mb 0.00 in0.0 mm 0.00 in0.0 mm 0.07 in1.8 mm
10:30 PM 39.4°F4.1°C 39.1°F3.9°C 99% 5.4 mph W8.7 kmh W 13.0 mph20.9 kmh 30.00 in1015.9 mb 0.00 in0.0 mm 0.00 in0.0 mm 0.07 in1.8 mm
10:45 PM 39.7°F4.3°C 39.0°F3.9°C 97% Calm Calm 21.3 mph34.3 kmh 30.00 in1015.9 mb 0.00 in0.0 mm 0.00 in0.0 mm 0.07 in1.8 mm
11:00 PM 39.7°F4.3°C 38.2°F3.4°C 94% 3.8 mph WNW6.1 kmh WNW 17.4 mph28.0 kmh 29.99 in1015.6 mb 0.00 in0.0 mm 0.00 in0.0 mm 0.07 in1.8 mm
11:15 PM 39.7°F4.3°C 37.3°F2.9°C 91% 7.6 mph W12.2 kmh W 20.6 mph33.2 kmh 30.00 in1015.9 mb 0.00 in0.0 mm 0.00 in0.0 mm 0.07 in1.8 mm
11:30 PM 38.8°F3.8°C 37.5°F3.1°C 95% 1.6 mph WNW2.6 kmh WNW 11.4 mph18.3 kmh 30.00 in1015.9 mb 0.00 in0.0 mm 0.00 in0.0 mm 0.07 in1.8 mm
11:45 PM 38.5°F3.6°C 37.4°F3.0°C 96% 2.2 mph W3.5 kmh W 10.7 mph17.2 kmh 30.00 in1015.9 mb 0.00 in0.0 mm 0.00 in0.0 mm 0.07 in1.8 mm